Time;durP1;ratioP1;P1;durP2;ratioP2;P2;SDS_P1;SDS_P2;PMS_P1;PMS_P2;Temp;Humidity;BMP_temperature;BMP_pressure;BME280_temperature;BME280_humidity;BME280_pressure;Samples;Min_cycle;Max_cycle;Signal;HPM_P1;HPM_P2
2022/07/23 00:00:58;;;;;;;4.82;2.50;;;;;;;16.70;98.42;101779.56;5173798;27;20050;-58
2022/07/23 00:03:27;;;;;;;4.85;2.38;;;;;;;16.76;97.96;101774.75;5173925;27;20095;-58
2022/07/23 00:05:55;;;;;;;5.07;2.60;;;;;;;16.79;97.67;101774.50;5174116;27;20095;-58
2022/07/23 00:08:23;;;;;;;4.50;2.60;;;;;;;16.68;98.60;101773.50;5153010;27;20034;-53
2022/07/23 00:10:51;;;;;;;5.85;2.50;;;;;;;16.58;99.73;101775.19;5171156;27;20056;-51
2022/07/23 00:13:19;;;;;;;5.93;2.30;;;;;;;16.45;100.00;101769.94;5173927;27;20090;-55
2022/07/23 00:15:47;;;;;;;6.15;2.17;;;;;;;16.40;100.00;101766.78;5171539;27;20473;-58
2022/07/23 00:18:15;;;;;;;5.20;2.47;;;;;;;16.35;100.00;101764.47;5173462;27;20113;-55
2022/07/23 00:20:45;;;;;;;5.80;2.47;;;;;;;16.38;100.00;101769.56;5173927;27;20099;-58
2022/07/23 00:23:13;;;;;;;4.88;2.38;;;;;;;16.31;100.00;101768.31;5171657;27;20047;-55
2022/07/23 00:25:41;;;;;;;5.10;2.60;;;;;;;16.27;100.00;101769.53;5171502;27;20469;-50
2022/07/23 00:28:09;;;;;;;6.65;2.65;;;;;;;16.24;100.00;101772.41;5173214;27;20077;-52
2022/07/23 00:30:38;;;;;;;6.93;2.88;;;;;;;16.15;100.00;101775.75;5172649;27;20046;-55
2022/07/23 00:33:08;;;;;;;5.93;2.78;;;;;;;16.05;100.00;101765.81;5152142;27;20038;-57
2022/07/23 00:35:40;;;;;;;6.22;2.85;;;;;;;16.08;100.00;101758.59;5173222;27;20057;-58
2022/07/23 00:38:11;;;;;;;6.50;2.97;;;;;;;16.08;100.00;101767.38;5177613;27;20060;-52
2022/07/23 00:40:40;;;;;;;6.55;3.10;;;;;;;15.93;100.00;101764.06;5177448;27;20408;-52
2022/07/23 00:43:08;;;;;;;5.70;3.10;;;;;;;15.86;100.00;101766.31;5177301;27;20374;-58
2022/07/23 00:45:36;;;;;;;7.50;3.53;;;;;;;15.83;100.00;101761.22;5177169;27;20042;-53
2022/07/23 00:48:06;;;;;;;5.45;3.33;;;;;;;15.82;100.00;101766.66;5176987;27;20117;-57
2022/07/23 00:50:34;;;;;;;9.05;3.72;;;;;;;15.80;100.00;101765.91;5177473;27;20063;-57
2022/07/23 00:53:02;;;;;;;7.30;3.47;;;;;;;15.75;100.00;101762.69;5175189;27;20097;-58
2022/07/23 00:55:32;;;;;;;8.40;3.50;;;;;;;15.69;100.00;101761.34;5175614;27;20397;-57
2022/07/23 00:58:04;;;;;;;7.78;3.83;;;;;;;15.63;100.00;101761.81;5177424;27;20408;-57
2022/07/23 01:00:32;;;;;;;6.43;3.77;;;;;;;15.71;100.00;101757.63;5174106;27;20053;-57
2022/07/23 01:03:00;;;;;;;6.95;3.60;;;;;;;15.62;100.00;101753.00;5176989;27;20034;-59
2022/07/23 01:05:28;;;;;;;6.43;3.55;;;;;;;15.56;100.00;101766.69;5177308;27;20042;-57
2022/07/23 01:07:57;;;;;;;9.13;3.60;;;;;;;15.60;100.00;101762.00;5176634;27;20042;-54
2022/07/23 01:10:34;;;;;;;6.57;3.55;;;;;;;15.53;100.00;101753.69;5177442;27;20106;-58
2022/07/23 01:13:06;;;;;;;6.00;3.63;;;;;;;15.54;100.00;101755.34;5173536;27;20053;-57
2022/07/23 01:15:36;;;;;;;7.32;4.50;;;;;;;15.52;100.00;101754.63;5155943;27;20091;-58
2022/07/23 01:18:05;;;;;;;9.18;3.92;;;;;;;15.47;100.00;101759.41;5171830;27;20046;-53
2022/07/23 01:20:34;;;;;;;6.60;3.65;;;;;;;15.46;100.00;101755.91;5173123;27;20062;-53
2022/07/23 01:23:03;;;;;;;7.45;3.83;;;;;;;15.46;100.00;101747.97;5175646;27;20137;-58
2022/07/23 01:25:32;;;;;;;8.73;4.38;;;;;;;15.44;100.00;101746.38;5174749;27;20042;-55
2022/07/23 01:28:00;;;;;;;8.27;3.70;;;;;;;15.45;100.00;101748.06;5176742;27;20429;-54
2022/07/23 01:30:28;;;;;;;7.65;3.75;;;;;;;15.31;100.00;101749.03;5173772;27;20042;-52
2022/07/23 01:32:56;;;;;;;8.30;4.32;;;;;;;15.27;100.00;101756.38;5174866;27;20079;-55
2022/07/23 01:35:24;;;;;;;7.55;4.20;;;;;;;15.21;100.00;101747.06;5176902;27;20042;-55
2022/07/23 01:37:53;;;;;;;8.43;4.55;;;;;;;15.19;100.00;101737.53;5176393;27;20087;-58
2022/07/23 01:40:22;;;;;;;9.48;4.75;;;;;;;15.14;100.00;101744.94;5176334;27;20397;-59
2022/07/23 01:42:51;;;;;;;8.00;4.55;;;;;;;15.10;100.00;101744.31;5176453;27;20054;-52
2022/07/23 01:45:19;;;;;;;9.48;4.50;;;;;;;15.10;100.00;101739.00;5175113;27;20066;-54
2022/07/23 01:47:49;;;;;;;7.45;4.57;;;;;;;15.09;100.00;101741.75;5173683;27;20472;-58
2022/07/23 01:50:17;;;;;;;7.65;4.05;;;;;;;15.04;100.00;101740.28;5174970;27;20176;-58
2022/07/23 01:52:45;;;;;;;7.35;4.30;;;;;;;15.04;100.00;101745.59;5173632;27;20042;-58
2022/07/23 01:55:13;;;;;;;8.93;4.40;;;;;;;15.09;100.00;101742.59;5175462;27;20042;-54
2022/07/23 01:57:47;;;;;;;9.05;4.03;;;;;;;15.13;100.00;101743.25;5173647;27;20046;-54
2022/07/23 02:00:16;;;;;;;8.05;4.07;;;;;;;15.06;100.00;101742.81;5174317;27;20054;-58
2022/07/23 02:02:44;;;;;;;7.63;4.00;;;;;;;14.98;100.00;101740.72;5176343;27;20107;-58
2022/07/23 02:05:12;;;;;;;9.48;4.00;;;;;;;14.97;100.00;101748.75;5173222;27;20161;-56
2022/07/23 02:07:40;;;;;;;8.48;4.10;;;;;;;15.02;100.00;101744.84;5173132;27;20065;-54
2022/07/23 02:10:09;;;;;;;8.75;3.92;;;;;;;15.02;100.00;101742.22;5176081;27;20482;-53
2022/07/23 02:12:37;;;;;;;7.25;3.97;;;;;;;14.98;100.00;101742.50;5176615;27;20046;-57
2022/07/23 02:15:08;;;;;;;7.75;3.92;;;;;;;14.98;100.00;101742.50;5173116;27;20038;-52
2022/07/23 02:17:37;;;;;;;7.32;3.63;;;;;;;14.98;100.00;101740.72;5175354;27;20576;-57
2022/07/23 02:20:06;;;;;;;6.97;3.78;;;;;;;15.01;100.00;101737.84;5175844;27;20034;-52
2022/07/23 02:22:34;;;;;;;7.38;3.88;;;;;;;14.75;100.00;101737.03;5175713;27;20068;-53
2022/07/23 02:25:03;;;;;;;8.32;4.38;;;;;;;14.76;100.00;101737.84;5157116;27;20072;-54
2022/07/23 02:27:31;;;;;;;8.23;3.78;;;;;;;14.81;100.00;101744.53;5175164;27;20507;-53
2022/07/23 02:29:59;;;;;;;8.50;4.07;;;;;;;14.74;100.00;101734.44;5175712;27;20061;-54
2022/07/23 02:32:28;;;;;;;7.03;3.85;;;;;;;14.72;100.00;101731.06;5175151;27;20040;-54
2022/07/23 02:34:57;;;;;;;6.00;3.70;;;;;;;14.68;100.00;101733.94;5175699;27;20507;-50
2022/07/23 02:37:25;;;;;;;9.65;3.90;;;;;;;14.69;100.00;101735.63;5156705;27;20110;-57
2022/07/23 02:39:53;;;;;;;9.23;4.15;;;;;;;14.73;100.00;101736.25;5175254;27;20071;-51
2022/07/23 02:42:21;;;;;;;9.30;3.53;;;;;;;14.68;100.00;101738.38;5174855;27;20046;-54
2022/07/23 02:44:49;;;;;;;8.65;3.90;;;;;;;14.70;100.00;101739.97;5175754;27;20045;-57
2022/07/23 02:47:17;;;;;;;8.75;4.07;;;;;;;14.61;100.00;101737.06;5174550;27;20113;-56
2022/07/23 02:49:46;;;;;;;8.18;3.75;;;;;;;14.69;100.00;101735.63;5175068;27;20091;-57
2022/07/23 02:52:15;;;;;;;7.47;3.92;;;;;;;14.65;100.00;101739.44;5175003;27;20060;-56
2022/07/23 02:54:43;;;;;;;8.15;3.88;;;;;;;14.58;100.00;101746.06;5174552;27;20095;-50
2022/07/23 02:57:11;;;;;;;6.57;3.25;;;;;;;14.58;100.00;101739.94;5174895;27;20038;-57
2022/07/23 02:59:38;;;;;;;8.85;3.60;;;;;;;14.62;100.00;101739.63;5174583;27;20125;-58
2022/07/23 03:02:07;;;;;;;8.27;3.67;;;;;;;14.58;100.00;101740.78;5172117;27;20042;-54
2022/07/23 03:04:35;;;;;;;6.82;3.40;;;;;;;14.50;100.00;101741.28;5174426;27;20469;-54
2022/07/23 03:07:04;;;;;;;8.48;3.45;;;;;;;14.47;100.00;101738.03;5170592;27;20056;-54
2022/07/23 03:09:32;;;;;;;9.27;3.78;;;;;;;14.48;100.00;101737.03;5168426;27;20102;-54
2022/07/23 03:12:00;;;;;;;8.27;3.40;;;;;;;14.54;100.00;101748.06;5154287;27;20128;-57
2022/07/23 03:14:29;;;;;;;8.75;3.72;;;;;;;14.53;100.00;101751.69;5172642;27;20555;-58
2022/07/23 03:16:57;;;;;;;6.20;3.33;;;;;;;14.49;100.00;101744.91;5174339;27;20034;-57
2022/07/23 03:19:25;;;;;;;6.25;3.28;;;;;;;14.50;100.00;101743.09;5174153;27;20046;-57
2022/07/23 03:21:53;;;;;;;13.73;3.85;;;;;;;14.41;100.00;101741.94;5174186;27;20067;-57
2022/07/23 03:24:23;;;;;;;6.60;3.50;;;;;;;14.31;100.00;101744.31;5174063;27;20056;-53
2022/07/23 03:26:51;;;;;;;7.90;3.33;;;;;;;14.30;100.00;101744.44;5174460;27;20041;-53
2022/07/23 03:29:19;;;;;;;7.18;3.38;;;;;;;14.44;100.00;101740.84;5154572;27;20532;-57
2022/07/23 03:31:47;;;;;;;7.30;3.22;;;;;;;14.36;100.00;101749.31;5171457;27;20039;-57
2022/07/23 03:34:18;;;;;;;7.15;3.33;;;;;;;14.29;100.00;101748.88;5173626;27;20137;-51
2022/07/23 03:36:46;;;;;;;7.15;3.20;;;;;;;14.24;100.00;101745.69;5174954;27;20042;-52
2022/07/23 03:39:14;;;;;;;6.00;3.30;;;;;;;14.24;100.00;101747.50;5172268;27;20086;-54
2022/07/23 03:41:43;;;;;;;6.05;3.38;;;;;;;14.22;100.00;101747.59;5171524;27;20046;-58
2022/07/23 03:44:12;;;;;;;5.82;3.35;;;;;;;14.23;100.00;101749.28;5174322;27;20042;-56
2022/07/23 03:46:40;;;;;;;7.40;3.30;;;;;;;14.34;100.00;101751.22;5173482;27;20026;-58
2022/07/23 03:49:08;;;;;;;7.45;3.38;;;;;;;14.23;100.00;101751.91;5154283;27;20432;-53
2022/07/23 03:51:36;;;;;;;8.02;3.95;;;;;;;14.22;100.00;101755.53;5169139;27;20046;-57
2022/07/23 03:54:04;;;;;;;7.28;3.63;;;;;;;14.12;100.00;101757.06;5171162;27;20430;-57
2022/07/23 03:56:32;;;;;;;8.52;3.50;;;;;;;14.14;100.00;101769.25;5173993;27;20034;-50
2022/07/23 03:59:02;;;;;;;8.50;4.18;;;;;;;14.03;100.00;101767.31;5173815;27;20046;-56
2022/07/23 04:01:31;;;;;;;6.22;3.40;;;;;;;14.09;100.00;101770.50;5173571;27;20054;-57
2022/07/23 04:03:59;;;;;;;7.22;3.47;;;;;;;14.07;100.00;101761.81;5173890;27;20090;-58
2022/07/23 04:06:27;;;;;;;8.23;3.45;;;;;;;14.06;100.00;101758.34;5170937;27;20473;-58
2022/07/23 04:08:55;;;;;;;6.93;3.30;;;;;;;13.99;100.00;101764.97;5173654;27;20514;-58
2022/07/23 04:11:23;;;;;;;5.97;3.45;;;;;;;13.97;100.00;101761.56;5173497;27;20732;-58
2022/07/23 04:13:51;;;;;;;7.68;3.63;;;;;;;13.91;100.00;101765.47;5173646;27;20041;-58
2022/07/23 04:16:21;;;;;;;6.20;3.15;;;;;;;13.91;100.00;101770.75;5171612;27;20086;-58
2022/07/23 04:18:49;;;;;;;8.73;3.55;;;;;;;13.89;100.00;101751.47;5171455;27;20125;-54
2022/07/23 04:21:17;;;;;;;6.78;3.33;;;;;;;14.03;100.00;101750.59;5171339;27;20050;-53
2022/07/23 04:23:45;;;;;;;7.13;3.22;;;;;;;13.97;100.00;101753.63;5172664;27;20072;-51
2022/07/23 04:26:13;;;;;;;7.35;3.75;;;;;;;14.01;100.00;101757.78;5170889;27;20567;-58
2022/07/23 04:28:45;;;;;;;6.72;3.58;;;;;;;14.02;100.00;101752.38;5170678;27;20057;-51
2022/07/23 04:31:13;;;;;;;6.90;3.22;;;;;;;14.06;100.00;101754.81;5173212;27;20058;-54
2022/07/23 04:33:42;;;;;;;7.03;3.45;;;;;;;14.01;100.00;101753.31;5173287;27;20584;-58
2022/07/23 04:36:10;;;;;;;6.75;2.97;;;;;;;13.98;100.00;101761.47;5172490;27;20674;-50
2022/07/23 04:38:38;;;;;;;6.10;3.17;;;;;;;14.13;100.00;101759.63;5171339;27;20053;-58
2022/07/23 04:41:06;;;;;;;7.18;3.20;;;;;;;14.10;100.00;101759.00;5171244;27;20444;-58
2022/07/23 04:43:34;;;;;;;5.68;3.28;;;;;;;14.10;100.00;101762.47;5173087;27;20042;-58
2022/07/23 04:46:02;;;;;;;7.05;3.22;;;;;;;14.10;100.00;101765.13;5154714;27;20042;-53
2022/07/23 04:48:31;;;;;;;11.73;3.72;;;;;;;14.12;100.00;101772.94;5154147;27;20404;-58
2022/07/23 04:51:01;;;;;;;7.68;3.38;;;;;;;14.17;100.00;101776.16;5174024;27;20090;-52
2022/07/23 04:53:29;;;;;;;7.35;3.30;;;;;;;14.10;100.00;101774.88;5172513;27;20042;-49
2022/07/23 04:55:57;;;;;;;8.63;3.50;;;;;;;14.16;100.00;101770.00;5168446;27;20497;-56
2022/07/23 04:58:25;;;;;;;7.03;3.13;;;;;;;14.14;100.00;101773.72;5153984;27;20079;-55
2022/07/23 05:00:53;;;;;;;6.85;3.55;;;;;;;14.11;100.00;101774.75;5173373;27;20068;-51
2022/07/23 05:03:21;;;;;;;7.70;3.55;;;;;;;14.11;100.00;101773.88;5169947;27;20046;-57
2022/07/23 05:05:49;;;;;;;7.47;3.80;;;;;;;14.26;100.00;101770.25;5173695;27;20038;-57
2022/07/23 05:08:19;;;;;;;6.55;3.35;;;;;;;14.29;100.00;101767.41;5171388;27;20094;-53
2022/07/23 05:10:47;;;;;;;7.13;3.45;;;;;;;14.28;100.00;101762.22;5168296;27;20122;-56
2022/07/23 05:13:16;;;;;;;9.10;3.60;;;;;;;14.36;100.00;101765.19;5172680;27;20039;-57
2022/07/23 05:15:45;;;;;;;7.07;3.13;;;;;;;14.43;100.00;101770.94;5173495;27;20034;-56
2022/07/23 05:18:13;;;;;;;5.82;2.90;;;;;;;14.57;100.00;101768.19;5173064;27;20043;-54
2022/07/23 05:20:41;;;;;;;7.10;3.90;;;;;;;14.57;100.00;101770.84;5170289;27;20068;-58
2022/07/23 05:23:09;;;;;;;6.80;3.80;;;;;;;14.57;100.00;101775.28;5172406;27;20146;-58
2022/07/23 05:25:39;;;;;;;9.50;4.00;;;;;;;14.68;100.00;101781.59;5157208;27;20485;-55
2022/07/23 05:28:07;;;;;;;7.57;4.13;;;;;;;14.72;100.00;101784.03;5174144;27;20041;-58
2022/07/23 05:30:35;;;;;;;9.20;3.90;;;;;;;14.78;100.00;101783.59;5155857;27;20042;-58
2022/07/23 05:33:03;;;;;;;9.10;4.50;;;;;;;14.84;100.00;101791.97;5174802;27;20052;-58
2022/07/23 05:35:31;;;;;;;7.07;4.05;;;;;;;14.97;100.00;101797.28;5172907;27;20066;-55
2022/07/23 05:37:59;;;;;;;9.57;3.90;;;;;;;14.99;100.00;101800.66;5176525;27;20041;-59
2022/07/23 05:40:28;;;;;;;8.75;3.83;;;;;;;15.05;100.00;101796.75;5174092;27;20042;-55
2022/07/23 05:42:57;;;;;;;9.63;3.70;;;;;;;15.15;100.00;101804.94;5174983;27;20145;-54
2022/07/23 05:45:25;;;;;;;8.82;4.53;;;;;;;15.23;100.00;101807.88;5172567;27;20052;-54
2022/07/23 05:47:55;;;;;;;6.40;3.83;;;;;;;15.31;100.00;101810.84;5173806;27;20046;-59
2022/07/23 05:50:22;;;;;;;8.35;3.83;;;;;;;15.38;100.00;101809.47;5175842;27;20038;-54
2022/07/23 05:52:51;;;;;;;7.28;3.58;;;;;;;15.47;100.00;101820.38;5173707;27;20039;-56
2022/07/23 05:55:22;;;;;;;9.48;3.90;;;;;;;15.59;100.00;101822.16;5174052;27;20042;-57
2022/07/23 05:57:50;;;;;;;7.43;2.83;;;;;;;15.67;100.00;101824.25;5174645;27;20469;-58
2022/07/23 06:00:20;;;;;;;6.22;2.65;;;;;;;15.78;100.00;101824.34;5176375;27;20515;-55
2022/07/23 06:02:48;;;;;;;5.97;2.47;;;;;;;15.86;100.00;101822.00;5176347;27;20469;-59
2022/07/23 06:05:22;;;;;;;7.15;2.80;;;;;;;15.98;100.00;101835.34;5155358;27;20070;-58
2022/07/23 06:07:50;;;;;;;7.15;3.20;;;;;;;16.07;100.00;101839.13;5175987;27;20042;-59
2022/07/23 06:10:18;;;;;;;8.70;2.78;;;;;;;16.13;100.00;101828.06;5175827;27;20095;-54
2022/07/23 06:12:47;;;;;;;6.60;2.50;;;;;;;16.25;100.00;101829.81;5175950;27;20038;-52
2022/07/23 06:15:15;;;;;;;7.00;2.83;;;;;;;16.33;100.00;101824.81;5157067;27;20045;-59
2022/07/23 06:17:44;;;;;;;5.88;2.92;;;;;;;16.43;100.00;101824.97;5174571;27;20046;-55
2022/07/23 06:20:12;;;;;;;6.47;2.60;;;;;;;16.56;100.00;101830.19;5172722;27;20045;-59
2022/07/23 06:22:41;;;;;;;7.78;2.47;;;;;;;16.65;100.00;101826.03;5175691;27;20042;-54
2022/07/23 06:25:09;;;;;;;4.47;2.05;;;;;;;16.75;99.65;101831.47;5175295;27;20066;-53
2022/07/23 06:27:47;;;;;;;6.50;2.30;;;;;;;16.86;98.00;101826.19;5175514;27;20105;-58
2022/07/23 06:30:17;;;;;;;6.20;2.08;;;;;;;16.96;99.93;101829.88;5175454;27;20034;-59
2022/07/23 06:32:47;;;;;;;5.30;2.30;;;;;;;17.11;99.65;101827.84;5175623;27;20073;-59
2022/07/23 06:35:16;;;;;;;5.28;2.22;;;;;;;17.25;98.70;101826.78;5175586;27;20049;-53
2022/07/23 06:37:44;;;;;;;8.13;3.00;;;;;;;17.36;97.09;101833.91;5175636;27;20497;-57
2022/07/23 06:40:14;;;;;;;7.32;2.20;;;;;;;17.52;95.99;101831.72;5173150;27;20050;-53
2022/07/23 06:42:42;;;;;;;3.75;2.10;;;;;;;17.62;93.67;101834.50;5172954;27;20121;-59
2022/07/23 06:45:11;;;;;;;7.03;2.88;;;;;;;17.68;91.89;101842.00;5176235;27;20049;-58
2022/07/23 06:47:40;;;;;;;7.93;2.20;;;;;;;17.73;92.40;101838.97;5176479;27;20460;-58
2022/07/23 06:50:10;;;;;;;7.03;2.35;;;;;;;17.76;91.91;101845.84;5176064;27;20049;-52
2022/07/23 06:52:38;;;;;;;5.82;2.30;;;;;;;17.88;89.72;101848.34;5173450;27;20054;-59
2022/07/23 06:55:10;;;;;;;5.10;2.40;;;;;;;18.02;89.95;101857.09;5174492;27;20049;-58
2022/07/23 06:57:39;;;;;;;5.88;2.63;;;;;;;18.15;91.01;101852.47;5176278;27;20385;-59
2022/07/23 07:00:08;;;;;;;5.45;2.22;;;;;;;18.31;92.18;101844.06;5175505;27;20087;-59
2022/07/23 07:02:36;;;;;;;6.43;2.60;;;;;;;18.42;88.77;101848.50;5157101;27;20067;-58
2022/07/23 07:05:05;;;;;;;6.13;2.13;;;;;;;18.54;86.37;101849.28;5175408;27;20433;-54
2022/07/23 07:07:35;;;;;;;3.63;1.58;;;;;;;18.73;88.31;101856.59;5174385;27;20531;-54
2022/07/23 07:10:03;;;;;;;6.05;2.30;;;;;;;18.89;86.15;101864.16;5174740;27;20042;-52
2022/07/23 07:12:31;;;;;;;4.80;2.20;;;;;;;18.97;83.71;101855.53;5174447;27;20046;-55
2022/07/23 07:15:00;;;;;;;5.57;2.30;;;;;;;19.10;83.72;101853.50;5154965;27;20062;-53
2022/07/23 07:17:28;;;;;;;5.55;2.10;;;;;;;19.28;84.67;101856.41;5173590;27;20050;-53
2022/07/23 07:19:56;;;;;;;6.43;1.98;;;;;;;19.45;85.18;101843.44;5174005;27;20087;-58
2022/07/23 07:22:24;;;;;;;4.28;2.30;;;;;;;19.55;83.31;101854.97;5172985;27;20438;-58
2022/07/23 07:24:53;;;;;;;5.78;1.88;;;;;;;19.62;78.79;101849.94;5170962;27;20042;-58
2022/07/23 07:27:21;;;;;;;3.75;1.90;;;;;;;19.68;76.51;101847.59;5171854;27;20352;-57
2022/07/23 07:29:49;;;;;;;6.03;1.83;;;;;;;19.91;78.67;101853.56;5160845;27;20035;-58
2022/07/23 07:32:18;;;;;;;3.50;1.60;;;;;;;20.10;76.19;101851.94;5174183;27;20044;-57
2022/07/23 07:35:07;;;;;;;6.22;1.83;;;;;;;20.36;74.22;101849.56;5155060;27;20045;-58
2022/07/23 07:37:35;;;;;;;5.05;2.00;;;;;;;20.47;77.04;101847.75;5171597;27;20121;-57
2022/07/23 07:40:05;;;;;;;4.82;1.70;;;;;;;20.61;73.74;101855.31;5174058;27;20038;-56
2022/07/23 07:42:33;;;;;;;4.57;1.88;;;;;;;20.44;70.14;101855.06;5173472;27;20058;-58
2022/07/23 07:45:01;;;;;;;5.50;1.80;;;;;;;20.63;70.61;101856.03;5173630;27;20034;-58
2022/07/23 07:47:29;;;;;;;4.07;1.60;;;;;;;20.77;70.46;101855.63;5173330;27;20057;-57
2022/07/23 07:49:57;;;;;;;5.60;1.85;;;;;;;20.86;70.24;101853.06;5169818;27;20046;-57
2022/07/23 07:52:25;;;;;;;3.88;1.48;;;;;;;21.18;71.02;101851.91;5171184;27;20038;-57
2022/07/23 07:54:53;;;;;;;4.57;1.95;;;;;;;21.29;70.10;101859.72;5171539;27;20050;-57
2022/07/23 07:57:23;;;;;;;6.85;2.08;;;;;;;21.38;68.13;101860.69;5170504;27;20046;-57
2022/07/23 07:59:53;;;;;;;4.93;1.50;;;;;;;21.44;67.64;101868.13;5173900;27;20404;-57
2022/07/23 08:02:23;;;;;;;3.08;1.30;;;;;;;21.64;66.35;101871.59;5173951;27;20091;-58
2022/07/23 08:04:52;;;;;;;5.43;1.75;;;;;;;21.65;64.57;101873.31;5174528;27;20068;-57
2022/07/23 08:07:20;;;;;;;5.05;1.70;;;;;;;21.81;64.08;101879.84;5173830;27;20046;-57
2022/07/23 08:09:48;;;;;;;4.68;1.70;;;;;;;21.88;64.31;101875.56;5173667;27;20062;-53
2022/07/23 08:12:16;;;;;;;6.00;1.58;;;;;;;22.02;63.63;101876.88;5155771;27;20098;-58
2022/07/23 08:14:46;;;;;;;3.58;1.80;;;;;;;22.07;63.61;101880.81;5171807;27;20069;-58
2022/07/23 08:17:14;;;;;;;4.88;1.33;;;;;;;22.34;63.37;101876.41;5171778;27;20153;-53
2022/07/23 08:19:42;;;;;;;4.90;1.52;;;;;;;22.44;61.97;101882.56;5154763;27;21067;-57
2022/07/23 08:22:10;;;;;;;5.43;1.50;;;;;;;22.27;59.89;101870.78;5173577;27;20389;-57
2022/07/23 08:24:38;;;;;;;4.35;1.20;;;;;;;22.55;61.49;101864.53;5173479;27;20042;-57
2022/07/23 08:27:07;;;;;;;3.58;1.55;;;;;;;22.79;58.89;101875.47;5173074;27;20110;-58
2022/07/23 08:29:35;;;;;;;3.65;1.30;;;;;;;22.84;60.45;101872.31;5173711;27;20035;-58
2022/07/23 08:32:05;;;;;;;4.47;1.70;;;;;;;23.05;59.88;101880.00;5172905;27;20045;-57
2022/07/23 08:34:53;;;;;;;4.10;1.40;;;;;;;23.04;58.24;101874.81;5154688;27;20461;-53
2022/07/23 08:37:21;;;;;;;3.95;1.33;;;;;;;22.91;58.95;101883.28;5173171;27;20034;-58
2022/07/23 08:39:49;;;;;;;6.95;1.80;;;;;;;22.91;57.86;101883.28;5169904;27;20546;-57
2022/07/23 08:42:18;;;;;;;6.05;1.48;;;;;;;23.11;58.19;101878.56;5167749;27;20046;-58
2022/07/23 08:44:47;;;;;;;3.30;1.33;;;;;;;23.10;58.81;101876.88;5172288;27;20045;-57
2022/07/23 08:47:16;;;;;;;3.15;1.40;;;;;;;23.32;57.51;101882.75;5173410;27;20102;-58
2022/07/23 08:49:46;;;;;;;3.50;1.50;;;;;;;23.52;57.04;101884.19;5155455;27;20074;-54
2022/07/23 08:52:16;;;;;;;5.70;1.45;;;;;;;23.28;57.63;101884.88;5174251;27;20505;-58
2022/07/23 08:54:44;;;;;;;3.67;1.30;;;;;;;23.51;56.49;101882.50;5174336;27;20556;-58
2022/07/23 08:57:13;;;;;;;2.45;1.35;;;;;;;23.68;56.47;101891.44;5175788;27;20511;-58
2022/07/23 08:59:41;;;;;;;2.67;1.40;;;;;;;23.64;55.20;101882.03;5176948;27;20047;-58
2022/07/23 09:02:10;;;;;;;3.38;1.30;;;;;;;23.73;56.14;101883.75;5175220;27;20056;-58
2022/07/23 09:04:40;;;;;;;2.58;1.45;;;;;;;23.71;54.07;101875.03;5177794;27;20038;-54
2022/07/23 09:07:09;;;;;;;2.30;1.30;;;;;;;23.95;57.31;101876.13;5178321;27;20050;-54
2022/07/23 09:09:37;;;;;;;1.88;1.20;;;;;;;24.11;54.03;101872.66;5159689;27;20059;-58
2022/07/23 09:12:06;;;;;;;5.70;1.20;;;;;;;24.44;53.20;101876.22;5178186;27;20049;-53
2022/07/23 09:14:40;;;;;;;6.03;1.40;;;;;;;24.69;53.38;101878.13;5178085;27;20045;-52
2022/07/23 09:17:12;;;;;;;5.50;1.60;;;;;;;24.66;52.79;101879.28;5178092;27;20484;-58
2022/07/23 09:19:43;;;;;;;;;;;;;;;25.06;53.83;101865.97;5178932;27;20507;-52
2022/07/23 09:22:26;;;;;;;2.53;1.20;;;;;;;25.03;52.19;101872.53;5177987;27;19919;-54
2022/07/23 09:25:08;;;;;;;3.35;1.10;;;;;;;25.34;51.64;101873.69;5177935;27;20504;-54
2022/07/23 09:27:54;;;;;;;2.00;1.10;;;;;;;25.02;49.20;101870.88;5177737;27;20050;-53
2022/07/23 09:30:24;;;;;;;2.55;1.23;;;;;;;25.19;49.92;101876.22;5177545;27;20373;-51
2022/07/23 09:33:06;;;;;;;3.35;1.27;;;;;;;25.25;48.75;101876.38;5177747;27;20046;-53
2022/07/23 09:35:52;;;;;;;3.67;1.85;;;;;;;25.34;49.96;101879.91;5173707;27;20141;-58
2022/07/23 09:38:22;;;;;;;4.63;1.50;;;;;;;25.84;52.00;101883.25;5170389;27;20042;-52
2022/07/23 09:41:07;;;;;;;4.15;1.50;;;;;;;26.05;48.03;101884.50;5157971;27;20034;-53
2022/07/23 09:43:35;;;;;;;3.22;1.23;;;;;;;26.05;48.16;101885.31;5164148;27;20043;-57
2022/07/23 09:46:20;;;;;;;5.63;1.80;;;;;;;26.40;48.22;101883.09;5144797;27;20103;-58
2022/07/23 09:48:49;;;;;;;3.17;1.20;;;;;;;26.55;46.96;101880.44;5173456;27;20050;-53
2022/07/23 09:51:21;;;;;;;3.42;1.27;;;;;;;26.53;45.61;101876.25;5162830;27;20537;-53
2022/07/23 09:53:49;;;;;;;4.17;1.60;;;;;;;26.70;45.20;101885.91;5146550;27;20051;-57
2022/07/23 09:56:18;;;;;;;3.45;1.30;;;;;;;26.68;44.96;101885.22;5171459;27;20397;-59
2022/07/23 09:58:52;;;;;;;4.63;1.30;;;;;;;26.90;45.24;101871.88;5159683;27;20050;-58
2022/07/23 10:01:21;;;;;;;3.80;1.33;;;;;;;26.84;44.66;101880.75;5150689;27;20039;-53
2022/07/23 10:03:49;;;;;;;3.15;1.38;;;;;;;27.25;45.47;101886.53;5167330;27;20125;-57
2022/07/23 10:06:20;;;;;;;3.08;1.38;;;;;;;27.06;43.36;101881.69;5176418;27;20042;-57
2022/07/23 10:08:50;;;;;;;4.35;1.65;;;;;;;26.98;44.50;101879.91;5173819;27;20046;-53
2022/07/23 10:11:18;;;;;;;2.58;1.33;;;;;;;27.09;43.96;101874.06;5162732;27;20042;-53
2022/07/23 10:13:54;;;;;;;3.38;1.60;;;;;;;27.15;42.56;101873.31;5165976;27;20493;-54
2022/07/23 10:16:23;;;;;;;2.38;1.40;;;;;;;27.35;43.25;101874.63;5142147;27;20146;-53
2022/07/23 10:18:55;;;;;;;2.20;1.33;;;;;;;27.58;43.65;101870.00;5176089;27;20040;-57
2022/07/23 10:21:31;;;;;;;2.75;1.52;;;;;;;27.57;42.06;101862.06;5175084;27;20109;-57
2022/07/23 10:24:11;;;;;;;3.10;1.58;;;;;;;27.52;41.11;101864.50;5174603;27;20050;-57
2022/07/23 10:26:50;;;;;;;3.90;1.63;;;;;;;27.28;41.08;101856.50;5174404;27;20037;-57
2022/07/23 10:29:34;;;;;;;3.70;1.42;;;;;;;27.60;43.08;101859.00;5173789;27;20034;-57
2022/07/23 10:32:10;;;;;;;2.95;1.52;;;;;;;27.65;39.51;101861.94;5169564;27;20034;-57
2022/07/23 10:34:45;;;;;;;2.95;1.50;;;;;;;27.85;42.20;101859.50;5152893;27;20081;-51
2022/07/23 10:37:22;;;;;;;2.90;1.40;;;;;;;28.06;40.71;101856.03;5150985;27;20065;-51
2022/07/23 10:40:10;;;;;;;3.78;1.88;;;;;;;27.85;40.29;101867.59;5174567;27;20046;-57
2022/07/23 10:42:38;;;;;;;4.75;1.42;;;;;;;28.05;41.61;101867.03;5172901;27;20058;-56
2022/07/23 10:45:28;;;;;;;4.45;1.38;;;;;;;28.16;38.81;101853.00;5165517;27;20039;-57
2022/07/23 10:47:57;;;;;;;3.17;1.60;;;;;;;28.47;37.94;101852.66;5171963;27;20438;-57
2022/07/23 10:50:27;;;;;;;4.40;1.75;;;;;;;28.12;38.92;101852.53;5174581;27;20042;-54
2022/07/23 10:53:17;;;;;;;3.47;1.55;;;;;;;28.09;38.78;101858.34;5174076;27;21695;-57
2022/07/23 10:55:51;;;;;;;4.90;1.63;;;;;;;28.07;40.29;101857.69;5171162;27;20042;-52
2022/07/23 10:58:44;;;;;;;3.83;1.75;;;;;;;28.60;40.58;101856.50;5173792;27;20061;-54
2022/07/23 11:01:26;;;;;;;;;;;;;;;29.00;37.82;101857.66;5154452;27;20046;-57
2022/07/23 11:03:58;;;;;;;4.13;1.70;;;;;;;28.82;38.76;101860.88;5169626;27;20337;-57
2022/07/23 11:07:00;;;;;;;4.32;1.40;;;;;;;29.02;38.41;101854.75;5164651;27;20098;-53
2022/07/23 11:09:32;;;;;;;4.43;1.75;;;;;;;29.02;38.80;101853.94;5166334;27;20477;-51
2022/07/23 11:12:38;;;;;;;5.13;1.58;;;;;;;29.37;38.79;101856.63;5166833;27;20049;-52
2022/07/23 11:15:09;;;;;;;4.75;1.77;;;;;;;29.48;38.35;101859.63;5145895;27;20106;-53
2022/07/23 11:17:40;;;;;;;3.42;1.70;;;;;;;29.62;35.58;101856.97;5173063;27;20481;-55
2022/07/23 11:20:18;;;;;;;4.70;1.60;;;;;;;29.96;38.38;101856.06;5173809;27;20054;-57
2022/07/23 11:22:52;;;;;;;4.53;1.70;;;;;;;29.45;36.86;101859.19;5174425;27;20041;-52
2022/07/23 11:25:35;;;;;;;4.72;1.60;;;;;;;29.62;37.18;101851.56;5172166;27;20042;-52
2022/07/23 11:28:14;;;;;;;3.72;1.75;;;;;;;29.50;36.50;101854.84;5174087;27;20034;-54
2022/07/23 11:30:45;;;;;;;4.70;1.70;;;;;;;29.92;37.83;101856.69;5169483;27;20038;-56
2022/07/23 11:33:23;;;;;;;4.07;1.50;;;;;;;29.98;36.21;101856.69;5172614;27;20050;-57
2022/07/23 11:36:03;;;;;;;3.58;1.42;;;;;;;30.30;37.44;101859.66;5175552;27;20090;-56